Time;durP1;ratioP1;P1;durP2;ratioP2;P2;SDS_P1;SDS_P2;PMS_P1;PMS_P2;Temp;Humidity;BMP_temperature;BMP_pressure;BME280_temperature;BME280_humidity;BME280_pressure;Samples;Min_cycle;Max_cycle;Signal;HPM_P1;HPM_P2
2023/03/25 00:00:16;;;;;;;12.40;11.70;;;11.90;99.90;;;;;;4782537;29;20486;-43
2023/03/25 00:02:44;;;;;;;13.13;12.33;;;11.90;99.90;;;;;;4792565;29;20568;-47
2023/03/25 00:05:11;;;;;;;12.50;11.90;;;11.90;99.90;;;;;;4790983;29;21302;-48
2023/03/25 00:07:37;;;;;;;12.30;11.60;;;11.80;99.90;;;;;;4794712;29;20545;-51
2023/03/25 00:10:03;;;;;;;13.10;12.27;;;11.80;99.90;;;;;;4794325;29;20805;-44
2023/03/25 00:12:29;;;;;;;13.30;12.50;;;11.70;99.90;;;;;;4795058;29;20448;-53
2023/03/25 00:14:57;;;;;;;13.43;12.70;;;11.70;99.90;;;;;;4794450;29;20458;-42
2023/03/25 00:17:27;;;;;;;13.03;12.43;;;11.70;99.90;;;;;;4778176;29;20511;-45
2023/03/25 00:19:54;;;;;;;13.77;12.87;;;11.60;99.90;;;;;;4794635;29;20577;-46
2023/03/25 00:22:20;;;;;;;12.47;11.87;;;11.50;99.90;;;;;;4795237;29;20447;-45
2023/03/25 00:24:47;;;;;;;13.00;12.30;;;11.60;99.90;;;;;;4794937;29;20458;-49
2023/03/25 00:27:18;;;;;;;13.03;12.30;;;11.50;99.90;;;;;;4794882;29;20538;-44
2023/03/25 00:29:45;;;;;;;12.97;12.27;;;11.50;99.90;;;;;;4794234;29;20539;-47
2023/03/25 00:32:12;;;;;;;12.97;12.27;;;11.40;99.90;;;;;;4795083;29;20459;-46
2023/03/25 00:34:45;;;;;;;13.53;12.50;;;11.40;99.90;;;;;;4794507;29;20452;-49
2023/03/25 00:37:16;;;;;;;13.40;12.60;;;11.30;99.90;;;;;;4794339;29;20487;-47
2023/03/25 00:39:43;;;;;;;13.70;12.70;;;11.20;99.90;;;;;;4794266;29;20477;-46
2023/03/25 00:42:10;;;;;;;13.50;12.60;;;11.10;99.90;;;;;;4795184;29;20444;-49
2023/03/25 00:44:35;;;;;;;13.17;12.37;;;11.00;99.90;;;;;;4795000;29;20435;-50
2023/03/25 00:47:01;;;;;;;13.30;12.60;;;11.00;99.90;;;;;;4795613;29;20799;-52
2023/03/25 00:49:27;;;;;;;13.67;12.77;;;10.90;99.90;;;;;;4794149;29;20198;-47
2023/03/25 00:51:54;;;;;;;13.03;12.30;;;10.90;99.90;;;;;;4795121;29;20204;-49
2023/03/25 00:54:21;;;;;;;12.73;12.03;;;10.70;99.90;;;;;;4794197;29;20546;-49
2023/03/25 00:56:47;;;;;;;13.80;12.80;;;10.70;99.90;;;;;;4795032;29;20571;-46
2023/03/25 00:59:13;;;;;;;13.20;12.50;;;10.70;99.90;;;;;;4793891;29;20561;-50
2023/03/25 01:01:39;;;;;;;12.83;12.13;;;10.70;99.90;;;;;;4794362;29;20454;-51
2023/03/25 01:04:11;;;;;;;12.43;11.73;;;10.90;99.90;;;;;;4793238;29;20264;-52
2023/03/25 01:06:42;;;;;;;12.93;12.13;;;11.00;99.90;;;;;;4778613;29;20487;-49
2023/03/25 01:09:12;;;;;;;12.47;11.70;;;11.00;99.90;;;;;;4790986;29;20534;-44
2023/03/25 01:11:40;;;;;;;12.80;12.00;;;11.00;99.90;;;;;;4794145;29;20478;-48
2023/03/25 01:14:10;;;;;;;13.20;12.23;;;11.10;99.90;;;;;;4793672;29;20462;-45
2023/03/25 01:16:36;;;;;;;12.87;12.07;;;11.10;99.90;;;;;;4793671;29;20534;-46
2023/03/25 01:19:02;;;;;;;12.63;11.90;;;11.20;99.90;;;;;;4793252;29;20930;-48
2023/03/25 01:21:27;;;;;;;13.03;12.13;;;11.10;99.90;;;;;;4794286;29;20455;-44
2023/03/25 01:23:53;;;;;;;12.97;12.37;;;11.20;99.90;;;;;;4794481;29;20466;-48
2023/03/25 01:26:19;;;;;;;12.90;12.20;;;11.20;99.90;;;;;;4792102;29;20202;-47
2023/03/25 01:28:46;;;;;;;13.60;12.80;;;11.10;99.90;;;;;;4793447;29;20662;-45
2023/03/25 01:31:13;;;;;;;13.03;12.23;;;11.20;99.90;;;;;;4793269;29;20458;-47
2023/03/25 01:33:39;;;;;;;12.70;12.00;;;11.20;99.90;;;;;;4793477;29;20454;-51
2023/03/25 01:36:09;;;;;;;12.70;12.00;;;11.20;99.90;;;;;;4792493;29;21027;-51
2023/03/25 01:38:36;;;;;;;12.87;12.17;;;11.20;99.90;;;;;;4792400;29;20433;-45
2023/03/25 01:41:03;;;;;;;12.70;12.00;;;11.10;99.90;;;;;;4792174;29;20545;-46
2023/03/25 01:43:30;;;;;;;13.03;12.00;;;11.20;99.90;;;;;;4793524;29;20493;-48
2023/03/25 01:45:56;;;;;;;12.60;11.80;;;11.10;99.90;;;;;;4792937;29;20509;-52
2023/03/25 01:48:34;;;;;;;12.90;12.20;;;11.00;99.90;;;;;;4793845;29;20447;-49
2023/03/25 01:51:13;;;;;;;12.80;12.10;;;11.00;99.90;;;;;;4792585;29;20448;-45
2023/03/25 01:53:39;;;;;;;12.80;12.10;;;11.00;99.90;;;;;;4793913;29;20759;-46
2023/03/25 01:56:06;;;;;;;12.77;12.07;;;11.00;99.90;;;;;;4792209;29;20441;-48
2023/03/25 01:58:33;;;;;;;12.43;11.73;;;11.00;99.90;;;;;;4786719;29;20455;-46
2023/03/25 02:01:00;;;;;;;13.20;12.20;;;11.00;99.90;;;;;;4791541;29;20455;-46
2023/03/25 02:03:27;;;;;;;12.33;11.73;;;11.10;99.90;;;;;;4787885;29;20456;-50
2023/03/25 02:06:05;;;;;;;12.67;12.00;;;11.10;99.90;;;;;;4792303;29;20801;-47
2023/03/25 02:08:37;;;;;;;12.90;12.20;;;11.20;99.90;;;;;;4792060;29;20513;-47
2023/03/25 02:11:07;;;;;;;13.33;12.53;;;11.20;99.90;;;;;;4792284;29;20975;-47
2023/03/25 02:13:35;;;;;;;13.40;12.50;;;11.20;99.90;;;;;;4791342;29;20662;-48
2023/03/25 02:16:24;;;;;;;13.00;12.10;;;11.20;99.90;;;;;;4791786;29;20477;-49
2023/03/25 02:18:56;;;;;;;12.93;12.10;;;11.20;99.90;;;;;;4793405;29;20431;-49
2023/03/25 02:21:45;;;;;;;12.63;11.83;;;11.20;99.90;;;;;;4791884;29;20994;-48
2023/03/25 02:24:28;;;;;;;12.87;11.97;;;11.30;99.90;;;;;;4792366;29;20451;-46
2023/03/25 02:27:26;;;;;;;12.93;11.93;;;11.30;99.90;;;;;;4793056;29;20511;-45
2023/03/25 02:30:08;;;;;;;12.53;11.87;;;11.30;99.90;;;;;;4775483;29;20446;-46
2023/03/25 02:32:52;;;;;;;12.63;11.93;;;11.30;99.90;;;;;;4792034;29;20470;-46
2023/03/25 02:35:36;;;;;;;12.23;11.63;;;11.20;99.90;;;;;;4792538;29;20494;-46
2023/03/25 02:38:36;;;;;;;12.10;11.40;;;11.30;99.90;;;;;;4774481;29;20472;-49
2023/03/25 02:41:24;;;;;;;12.30;11.60;;;11.20;99.90;;;;;;4785393;29;20664;-45
2023/03/25 02:43:55;;;;;;;12.40;11.60;;;11.20;99.90;;;;;;4792526;29;20450;-45
2023/03/25 02:46:24;;;;;;;12.00;11.30;;;11.20;99.90;;;;;;4792851;29;20427;-49
2023/03/25 02:49:12;;;;;;;12.10;11.30;;;11.20;99.90;;;;;;4792555;29;20445;-47
2023/03/25 02:51:49;;;;;;;11.80;11.10;;;11.30;99.90;;;;;;4793306;29;21190;-47
2023/03/25 02:54:17;;;;;;;12.07;11.37;;;11.20;99.90;;;;;;4792809;29;20435;-44
2023/03/25 02:56:46;;;;;;;12.20;11.50;;;11.20;99.90;;;;;;4791895;29;20566;-48
2023/03/25 02:59:13;;;;;;;12.23;11.33;;;11.20;99.90;;;;;;4791493;29;20950;-49
2023/03/25 03:01:40;;;;;;;11.60;10.90;;;11.20;99.90;;;;;;4792323;29;20807;-47
2023/03/25 03:04:05;;;;;;;11.97;11.27;;;11.20;99.90;;;;;;4791658;29;20508;-44
2023/03/25 03:06:37;;;;;;;11.70;11.00;;;11.20;99.90;;;;;;4792501;29;20844;-46
2023/03/25 03:09:21;;;;;;;12.67;11.97;;;11.20;99.90;;;;;;4790019;29;20660;-49
2023/03/25 03:11:59;;;;;;;12.50;11.70;;;11.10;99.90;;;;;;4792063;29;21114;-47
2023/03/25 03:14:47;;;;;;;11.87;11.17;;;11.00;99.90;;;;;;4790757;29;20459;-46
2023/03/25 03:17:17;;;;;;;12.43;11.50;;;10.90;99.90;;;;;;4784395;29;21068;-48
2023/03/25 03:20:04;;;;;;;12.40;11.60;;;10.80;99.90;;;;;;4781002;29;22782;-49
2023/03/25 03:22:40;;;;;;;11.90;11.10;;;10.70;99.90;;;;;;4792144;29;20444;-46
2023/03/25 03:25:31;;;;;;;11.83;11.23;;;10.60;99.90;;;;;;4792159;29;20513;-47
2023/03/25 03:28:08;;;;;;;11.60;11.00;;;10.50;99.90;;;;;;4783355;29;20465;-50
2023/03/25 03:31:05;;;;;;;11.33;10.83;;;10.40;99.90;;;;;;4790958;29;20751;-48
2023/03/25 03:34:09;;;;;;;12.80;12.03;;;10.30;99.90;;;;;;4787810;29;20935;-48
2023/03/25 03:36:40;;;;;;;12.17;11.50;;;10.20;99.90;;;;;;4780819;29;20499;-46
2023/03/25 03:39:15;;;;;;;12.70;12.00;;;10.20;99.90;;;;;;4790898;29;20474;-47
2023/03/25 03:41:44;;;;;;;11.83;11.17;;;10.20;99.90;;;;;;4793264;29;20500;-45
2023/03/25 03:44:13;;;;;;;11.87;11.17;;;10.10;99.90;;;;;;4794047;29;20877;-45
2023/03/25 03:46:48;;;;;;;12.03;11.37;;;10.10;99.90;;;;;;4794652;29;20447;-46
2023/03/25 03:49:17;;;;;;;12.80;12.20;;;10.10;99.90;;;;;;4795276;29;20451;-45
2023/03/25 03:51:55;;;;;;;12.10;11.50;;;10.10;99.90;;;;;;4795849;29;20448;-46
2023/03/25 03:54:36;;;;;;;11.17;10.37;;;10.10;99.90;;;;;;4795543;29;20795;-48
2023/03/25 03:57:07;;;;;;;11.97;11.17;;;10.10;99.90;;;;;;4793716;29;20510;-46
2023/03/25 03:59:45;;;;;;;12.80;12.10;;;10.10;99.90;;;;;;4793715;29;20866;-48
2023/03/25 04:02:22;;;;;;;11.47;10.93;;;10.10;99.90;;;;;;4795127;29;20448;-45
2023/03/25 04:04:48;;;;;;;12.00;11.27;;;10.10;99.90;;;;;;4793523;29;20524;-49
2023/03/25 04:07:17;;;;;;;12.60;11.73;;;10.10;99.90;;;;;;4795042;29;20478;-49
2023/03/25 04:10:01;;;;;;;11.60;11.00;;;10.10;99.90;;;;;;4794476;29;20619;-46
2023/03/25 04:12:30;;;;;;;12.13;11.53;;;10.10;99.90;;;;;;4795224;29;20445;-47
2023/03/25 04:14:59;;;;;;;12.00;11.40;;;10.20;99.90;;;;;;4794362;29;20451;-46
2023/03/25 04:17:24;;;;;;;11.73;11.13;;;10.20;99.90;;;;;;4794437;29;20519;-45
2023/03/25 04:19:52;;;;;;;11.93;11.23;;;10.30;99.90;;;;;;4794964;29;20552;-47
2023/03/25 04:22:20;;;;;;;12.00;11.30;;;10.20;99.90;;;;;;4794855;29;20222;-47
2023/03/25 04:24:48;;;;;;;11.83;11.03;;;10.30;99.90;;;;;;4794892;29;20436;-45
2023/03/25 04:27:15;;;;;;;11.87;11.17;;;10.30;99.90;;;;;;4778312;29;20450;-45
2023/03/25 04:29:42;;;;;;;11.00;10.40;;;10.30;99.90;;;;;;4793509;29;21508;-46
2023/03/25 04:32:10;;;;;;;10.90;10.30;;;10.40;99.90;;;;;;4793757;29;20457;-46
2023/03/25 04:34:35;;;;;;;10.63;9.90;;;10.40;99.90;;;;;;4795414;29;20487;-45
2023/03/25 04:37:02;;;;;;;13.63;12.10;;;10.40;99.90;;;;;;4794181;29;20899;-51
2023/03/25 04:39:28;;;;;;;13.37;12.07;;;10.40;99.90;;;;;;4794996;29;20181;-49
2023/03/25 04:42:00;;;;;;;10.50;10.00;;;10.40;99.90;;;;;;4794703;29;20445;-44
2023/03/25 04:44:27;;;;;;;10.40;9.87;;;10.50;99.90;;;;;;4794139;29;20442;-43
2023/03/25 04:46:54;;;;;;;10.03;9.63;;;10.60;99.90;;;;;;4794532;29;20452;-45
2023/03/25 04:49:22;;;;;;;10.30;9.90;;;10.60;99.90;;;;;;4794395;29;21003;-50
2023/03/25 04:51:50;;;;;;;9.80;9.10;;;10.70;99.90;;;;;;4794858;29;20981;-46
2023/03/25 04:54:17;;;;;;;10.67;10.17;;;10.70;99.90;;;;;;4794332;29;20516;-47
2023/03/25 04:56:43;;;;;;;10.13;9.70;;;10.70;99.90;;;;;;4794593;29;20542;-48
2023/03/25 04:59:09;;;;;;;10.40;10.00;;;10.80;99.90;;;;;;4794377;29;20468;-48
2023/03/25 05:01:40;;;;;;;11.07;10.57;;;10.90;99.90;;;;;;4793894;29;20994;-46
2023/03/25 05:04:11;;;;;;;10.30;9.80;;;11.00;99.90;;;;;;4795129;29;20420;-43
2023/03/25 05:06:38;;;;;;;10.57;10.10;;;11.00;99.90;;;;;;4792843;29;20442;-45
2023/03/25 05:09:05;;;;;;;10.60;10.00;;;11.00;99.90;;;;;;4794522;29;20785;-45
2023/03/25 05:11:33;;;;;;;10.43;10.00;;;11.00;99.90;;;;;;4794030;29;20524;-43
2023/03/25 05:13:59;;;;;;;10.60;9.90;;;11.10;99.90;;;;;;4792795;29;20529;-47
2023/03/25 05:16:25;;;;;;;10.40;9.90;;;11.20;99.90;;;;;;4794245;29;20476;-44
2023/03/25 05:18:51;;;;;;;10.37;9.93;;;11.20;99.90;;;;;;4793771;29;20536;-49
2023/03/25 05:21:17;;;;;;;10.17;9.67;;;11.20;99.90;;;;;;4793712;29;20457;-50
2023/03/25 05:23:43;;;;;;;10.50;10.00;;;11.20;99.90;;;;;;4792078;29;20481;-46
2023/03/25 05:26:11;;;;;;;9.57;9.00;;;11.20;99.90;;;;;;4793538;29;20481;-46
2023/03/25 05:28:37;;;;;;;10.03;9.50;;;11.10;99.90;;;;;;4792908;29;20537;-45
2023/03/25 05:31:07;;;;;;;9.90;9.40;;;11.20;99.90;;;;;;4793305;29;20446;-43
2023/03/25 05:33:33;;;;;;;10.10;9.50;;;11.20;99.90;;;;;;4792202;29;20499;-45
2023/03/25 05:36:00;;;;;;;9.63;9.23;;;11.20;99.90;;;;;;4792632;29;20531;-47
2023/03/25 05:38:26;;;;;;;10.00;9.60;;;11.20;99.90;;;;;;4792695;29;20494;-44
2023/03/25 05:40:51;;;;;;;10.23;9.80;;;11.20;99.90;;;;;;4792769;29;20459;-46
2023/03/25 05:43:21;;;;;;;9.90;9.50;;;11.10;99.90;;;;;;4790979;29;20201;-45
2023/03/25 05:45:48;;;;;;;9.97;9.47;;;11.10;99.90;;;;;;4791284;29;20691;-47
2023/03/25 05:48:14;;;;;;;10.30;9.80;;;11.10;99.90;;;;;;4777085;29;20488;-45
2023/03/25 05:50:43;;;;;;;9.87;9.47;;;11.20;99.90;;;;;;4793436;29;21060;-44
2023/03/25 05:53:14;;;;;;;9.63;9.23;;;11.20;99.90;;;;;;4793379;29;20455;-44
2023/03/25 05:55:40;;;;;;;9.40;9.10;;;11.10;99.90;;;;;;4793262;29;20943;-44
2023/03/25 05:58:06;;;;;;;9.10;8.70;;;11.10;99.90;;;;;;4791516;29;20494;-46
2023/03/25 06:00:31;;;;;;;9.77;9.37;;;11.00;99.90;;;;;;4789353;29;20230;-45
2023/03/25 06:02:58;;;;;;;9.37;9.07;;;10.80;99.90;;;;;;4792846;29;20214;-48
2023/03/25 06:05:24;;;;;;;9.60;9.30;;;10.60;99.90;;;;;;4792165;29;20532;-48
2023/03/25 06:07:54;;;;;;;9.87;9.47;;;10.40;99.90;;;;;;4793194;29;20818;-47
2023/03/25 06:10:21;;;;;;;9.50;9.10;;;10.40;99.90;;;;;;4792953;29;20999;-44
2023/03/25 06:12:47;;;;;;;9.87;9.50;;;10.30;99.90;;;;;;4792007;29;20578;-46
2023/03/25 06:15:16;;;;;;;9.90;9.50;;;10.20;99.90;;;;;;4793274;29;20483;-46
2023/03/25 06:17:45;;;;;;;9.17;8.83;;;10.30;99.90;;;;;;4792277;29;21578;-45
2023/03/25 06:20:12;;;;;;;9.70;9.30;;;10.30;99.90;;;;;;4793090;29;20436;-45
2023/03/25 06:22:41;;;;;;;9.20;8.80;;;10.40;99.90;;;;;;4793152;29;20995;-50
2023/03/25 06:25:08;;;;;;;9.93;9.50;;;10.40;99.90;;;;;;4791332;29;20448;-48
2023/03/25 06:27:39;;;;;;;9.33;9.03;;;10.40;99.90;;;;;;4792647;29;20940;-44
2023/03/25 06:30:25;;;;;;;9.40;9.00;;;10.40;99.90;;;;;;4793991;29;20483;-46
2023/03/25 06:32:51;;;;;;;9.83;9.43;;;10.40;99.90;;;;;;4791177;29;20469;-42
2023/03/25 06:35:18;;;;;;;9.77;9.37;;;10.30;99.90;;;;;;4754255;29;1134729;-49
2023/03/25 06:37:48;;;;;;;9.20;8.80;;;10.20;99.90;;;;;;4792910;29;20473;-46
2023/03/25 06:40:14;;;;;;;9.90;9.50;;;10.20;99.90;;;;;;4792840;29;21425;-49
2023/03/25 06:42:43;;;;;;;10.00;9.50;;;10.20;99.90;;;;;;4793463;29;20935;-44
2023/03/25 06:45:10;;;;;;;9.97;9.47;;;10.30;99.90;;;;;;4792415;29;20441;-46
2023/03/25 06:47:36;;;;;;;9.90;9.50;;;10.30;99.90;;;;;;4793289;29;20466;-46
2023/03/25 06:50:09;;;;;;;8.40;7.90;;;10.30;99.90;;;;;;4794544;29;20494;-51
2023/03/25 06:52:36;;;;;;;9.50;9.00;;;10.20;99.90;;;;;;4777097;29;20194;-49
2023/03/25 06:55:02;;;;;;;9.70;9.20;;;10.30;99.90;;;;;;4790319;29;20963;-45
2023/03/25 06:57:27;;;;;;;9.67;9.27;;;10.40;99.90;;;;;;4789738;29;21003;-44
2023/03/25 06:59:59;;;;;;;9.80;9.40;;;10.40;99.90;;;;;;4792506;29;20466;-49
2023/03/25 07:02:26;;;;;;;9.80;9.30;;;10.50;99.90;;;;;;4777106;29;20238;-48
2023/03/25 07:04:53;;;;;;;9.53;9.03;;;10.60;99.90;;;;;;4775837;29;20556;-51
2023/03/25 07:07:19;;;;;;;9.77;9.27;;;10.70;99.90;;;;;;4776414;29;20453;-45
2023/03/25 07:09:49;;;;;;;9.80;9.30;;;10.80;99.90;;;;;;4775603;29;20977;-48
2023/03/25 07:12:15;;;;;;;10.10;9.60;;;10.90;99.90;;;;;;4774275;29;20780;-48
2023/03/25 07:14:41;;;;;;;10.00;9.50;;;11.10;99.70;;;;;;4792380;29;20455;-50
2023/03/25 07:17:07;;;;;;;9.90;9.50;;;11.20;99.60;;;;;;4792731;29;20475;-49
2023/03/25 07:19:33;;;;;;;9.47;9.07;;;11.40;99.90;;;;;;4792918;29;20723;-50
2023/03/25 07:21:58;;;;;;;10.10;9.50;;;11.50;99.20;;;;;;4793516;29;20545;-51
2023/03/25 07:24:25;;;;;;;10.10;9.50;;;11.50;98.20;;;;;;4793153;29;20542;-47
2023/03/25 07:26:50;;;;;;;10.07;9.47;;;11.60;97.40;;;;;;4793882;29;20427;-54
2023/03/25 07:29:16;;;;;;;9.97;9.57;;;11.80;96.90;;;;;;4776554;29;20446;-48
2023/03/25 07:31:41;;;;;;;9.33;8.83;;;12.00;97.00;;;;;;4792848;29;20206;-49
2023/03/25 07:34:07;;;;;;;9.63;9.23;;;11.90;96.10;;;;;;4792970;29;20243;-47
2023/03/25 07:36:33;;;;;;;9.70;9.30;;;12.10;95.70;;;;;;4792237;29;20249;-45
2023/03/25 07:38:58;;;;;;;9.50;8.90;;;12.00;94.70;;;;;;4792796;29;20600;-47
2023/03/25 07:41:24;;;;;;;9.40;9.00;;;12.20;94.30;;;;;;4791712;29;20654;-46
2023/03/25 07:43:50;;;;;;;9.73;9.30;;;12.20;94.70;;;;;;4791578;29;20604;-48
2023/03/25 07:46:15;;;;;;;9.90;9.40;;;12.20;94.10;;;;;;4790775;29;20246;-51
2023/03/25 07:48:41;;;;;;;9.90;9.50;;;12.10;93.60;;;;;;4776426;29;20209;-51
2023/03/25 07:51:07;;;;;;;9.43;9.03;;;12.00;94.00;;;;;;4790761;29;20298;-51
2023/03/25 07:53:33;;;;;;;9.70;9.20;;;12.00;93.70;;;;;;4792158;29;20217;-50
2023/03/25 07:55:59;;;;;;;9.00;8.60;;;12.00;94.10;;;;;;4790039;29;20534;-52
2023/03/25 07:58:24;;;;;;;9.67;9.23;;;12.00;94.10;;;;;;4791951;29;20221;-50
2023/03/25 08:00:50;;;;;;;9.20;8.70;;;11.90;94.10;;;;;;4791187;29;20289;-50
2023/03/25 08:03:15;;;;;;;9.83;9.23;;;11.70;93.90;;;;;;4789762;29;20197;-52
2023/03/25 08:05:46;;;;;;;8.60;8.30;;;11.70;94.80;;;;;;4792276;29;20631;-50
2023/03/25 08:08:12;;;;;;;9.10;8.70;;;11.70;95.20;;;;;;4790071;29;20614;-50
2023/03/25 08:10:41;;;;;;;8.97;8.57;;;11.70;95.50;;;;;;4775688;29;20485;-49
2023/03/25 08:13:07;;;;;;;8.77;8.37;;;11.80;95.70;;;;;;4792195;29;20479;-46
2023/03/25 08:15:33;;;;;;;9.40;9.00;;;11.70;96.80;;;;;;4790887;29;20541;-46
2023/03/25 08:18:00;;;;;;;8.60;8.30;;;11.50;97.80;;;;;;4791910;29;20220;-49
2023/03/25 08:20:26;;;;;;;8.67;8.30;;;11.40;98.70;;;;;;4791451;29;20457;-47
2023/03/25 08:22:51;;;;;;;9.43;8.90;;;11.40;98.60;;;;;;4791021;29;20447;-50
2023/03/25 08:25:17;;;;;;;10.00;9.50;;;11.40;99.40;;;;;;4791368;29;20202;-47
2023/03/25 08:27:43;;;;;;;9.70;9.20;;;11.50;99.30;;;;;;4789639;29;20202;-47
2023/03/25 08:30:09;;;;;;;9.60;9.20;;;11.50;99.50;;;;;;4794015;29;20266;-46
2023/03/25 08:32:37;;;;;;;8.70;8.40;;;11.40;99.80;;;;;;4794557;29;20197;-50
2023/03/25 08:35:06;;;;;;;8.90;8.50;;;11.50;99.10;;;;;;4795250;29;21017;-51
2023/03/25 08:37:36;;;;;;;9.50;9.10;;;11.60;99.40;;;;;;4777833;29;20878;-52
2023/03/25 08:40:07;;;;;;;9.60;9.20;;;11.50;99.20;;;;;;4779091;29;20450;-50
2023/03/25 08:42:34;;;;;;;9.00;8.70;;;11.40;99.30;;;;;;4793853;29;20534;-50
2023/03/25 08:45:00;;;;;;;9.20;8.80;;;11.40;99.80;;;;;;4794856;29;20534;-45
2023/03/25 08:47:25;;;;;;;7.70;7.40;;;11.00;99.90;;;;;;4795432;29;20523;-47
2023/03/25 08:49:51;;;;;;;9.87;9.37;;;10.60;99.90;;;;;;4794732;29;20195;-47
2023/03/25 08:52:17;;;;;;;11.00;10.50;;;10.10;99.90;;;;;;4793610;29;20194;-48
2023/03/25 08:54:42;;;;;;;10.90;10.50;;;9.80;99.90;;;;;;4793854;29;20958;-48
2023/03/25 08:57:08;;;;;;;13.03;12.33;;;9.60;99.90;;;;;;4793384;29;20708;-47
2023/03/25 08:59:34;;;;;;;11.60;11.10;;;9.60;99.90;;;;;;4793548;29;20193;-47
2023/03/25 09:01:59;;;;;;;13.60;12.90;;;9.50;99.90;;;;;;4793127;29;20596;-50
2023/03/25 09:04:25;;;;;;;13.50;12.87;;;9.50;99.90;;;;;;4792403;29;20709;-50
2023/03/25 09:06:50;;;;;;;13.47;12.87;;;9.50;99.90;;;;;;4794592;29;20197;-50
2023/03/25 09:09:17;;;;;;;13.70;13.10;;;9.40;99.90;;;;;;4794763;29;20265;-50
2023/03/25 09:11:43;;;;;;;12.80;12.20;;;9.40;99.90;;;;;;4795354;29;20191;-45
2023/03/25 09:14:08;;;;;;;14.23;13.63;;;9.40;99.90;;;;;;4794994;29;20428;-48
2023/03/25 09:16:34;;;;;;;13.90;13.30;;;9.40;99.90;;;;;;4794857;29;20475;-47
2023/03/25 09:19:00;;;;;;;13.33;12.73;;;9.30;99.90;;;;;;4794812;29;20210;-48
2023/03/25 09:21:26;;;;;;;13.27;12.67;;;9.30;99.90;;;;;;4794100;29;20195;-49
2023/03/25 09:23:51;;;;;;;13.80;13.20;;;9.30;99.90;;;;;;4794911;29;20419;-48
2023/03/25 09:26:17;;;;;;;13.53;12.93;;;9.20;99.90;;;;;;4794464;29;20247;-49
2023/03/25 09:28:43;;;;;;;14.27;13.67;;;9.30;99.90;;;;;;4794622;29;20778;-48
2023/03/25 09:31:09;;;;;;;12.90;12.40;;;9.30;99.90;;;;;;4794544;29;20191;-48
2023/03/25 09:33:35;;;;;;;12.93;12.23;;;9.20;99.90;;;;;;4793771;29;20255;-47
2023/03/25 09:36:02;;;;;;;14.10;13.50;;;9.20;99.90;;;;;;4793779;29;20238;-43
2023/03/25 09:38:28;;;;;;;13.20;12.70;;;9.10;99.90;;;;;;4793403;29;20921;-53
2023/03/25 09:40:54;;;;;;;14.30;13.70;;;9.00;99.90;;;;;;4778040;29;20569;-46
2023/03/25 09:43:46;;;;;;;13.33;12.73;;;9.00;99.90;;;;;;4794309;29;20427;-49
2023/03/25 09:46:13;;;;;;;14.00;13.40;;;9.00;99.90;;;;;;4790337;29;20447;-45
2023/03/25 09:48:41;;;;;;;13.17;12.67;;;8.90;99.90;;;;;;4794254;29;20500;-54
2023/03/25 09:51:16;;;;;;;13.60;13.00;;;8.80;99.90;;;;;;4793670;29;20515;-48
2023/03/25 09:54:03;;;;;;;13.80;13.20;;;8.90;99.90;;;;;;4794074;29;20518;-51
2023/03/25 09:56:34;;;;;;;13.67;12.97;;;8.90;99.90;;;;;;4793789;29;20514;-53
2023/03/25 09:59:24;;;;;;;13.27;12.77;;;9.00;99.90;;;;;;4793567;29;20459;-54
2023/03/25 10:02:21;;;;;;;12.87;12.27;;;9.20;99.90;;;;;;4793773;29;20476;-52
2023/03/25 10:04:55;;;;;;;13.43;12.83;;;9.30;99.90;;;;;;4763908;29;20436;-48
2023/03/25 10:07:31;;;;;;;13.73;13.13;;;9.40;99.90;;;;;;4793775;29;20830;-46
2023/03/25 10:10:29;;;;;;;12.77;12.27;;;9.60;99.90;;;;;;4793335;29;20850;-48
2023/03/25 10:13:17;;;;;;;13.80;13.20;;;9.90;99.90;;;;;;4772410;29;20478;-45
2023/03/25 10:16:07;;;;;;;14.03;13.40;;;10.30;99.90;;;;;;4793555;29;20853;-46
2023/03/25 10:19:02;;;;;;;14.03;13.33;;;10.60;99.90;;;;;;4793655;29;20638;-52
2023/03/25 10:21:57;;;;;;;13.80;13.00;;;10.80;99.90;;;;;;4793247;29;20759;-53
2023/03/25 10:24:35;;;;;;;12.37;11.70;;;10.90;99.90;;;;;;4779023;29;20451;-52
2023/03/25 10:27:06;;;;;;;12.87;12.27;;;10.90;99.90;;;;;;4793587;29;20986;-50
2023/03/25 10:29:42;;;;;;;12.00;11.50;;;10.80;99.90;;;;;;4776959;29;20442;-52
2023/03/25 10:32:43;;;;;;;12.60;12.10;;;10.90;99.90;;;;;;4792626;29;20447;-51
2023/03/25 10:35:40;;;;;;;13.13;12.53;;;11.40;99.90;;;;;;4777910;29;20856;-47
2023/03/25 10:38:19;;;;;;;12.60;12.00;;;12.50;99.90;;;;;;4787072;29;20566;-49
2023/03/25 10:40:51;;;;;;;12.27;11.67;;;13.80;99.90;;;;;;4790401;29;21122;-50
2023/03/25 10:43:27;;;;;;;12.10;11.23;;;14.60;99.90;;;;;;4793655;29;20458;-43
2023/03/25 10:46:11;;;;;;;11.93;11.13;;;14.50;99.90;;;;;;4792092;29;20444;-43
2023/03/25 10:48:38;;;;;;;11.50;11.00;;;15.20;99.90;;;;;;4784976;29;20530;-46
2023/03/25 10:51:08;;;;;;;11.43;10.93;;;15.70;99.90;;;;;;4792614;29;20432;-44
2023/03/25 10:53:35;;;;;;;11.93;11.33;;;15.90;99.90;;;;;;4792718;29;20450;-47
2023/03/25 10:56:12;;;;;;;11.13;10.63;;;15.60;96.00;;;;;;4793053;29;20436;-45
2023/03/25 10:58:40;;;;;;;11.73;11.13;;;15.20;97.50;;;;;;4792918;29;21284;-43
2023/03/25 11:01:17;;;;;;;11.57;11.07;;;15.10;99.10;;;;;;4791035;29;20897;-48
2023/03/25 11:03:45;;;;;;;10.13;9.73;;;14.90;95.90;;;;;;4790913;29;20523;-44
